Time;durP1;ratioP1;P1;durP2;ratioP2;P2;SDS_P1;SDS_P2;PMS_P1;PMS_P2;Temp;Humidity;BMP_temperature;BMP_pressure;BME280_temperature;BME280_humidity;BME280_pressure;Samples;Min_cycle;Max_cycle;Signal;HPM_P1;HPM_P2
2023/01/04 00:00:14;;;;;;;2.97;1.60;;;7.70;99.90;;;;;;5073861;28;20477;-78
2023/01/04 00:02:39;;;;;;;4.10;1.80;;;7.70;99.90;;;;;;5073910;28;20060;-78
2023/01/04 00:05:05;;;;;;;5.63;1.70;;;7.70;99.90;;;;;;5073878;28;20079;-79
2023/01/04 00:07:31;;;;;;;3.58;1.65;;;7.70;99.90;;;;;;5073135;28;20056;-78
2023/01/04 00:09:56;;;;;;;7.45;2.15;;;7.70;99.90;;;;;;5074207;28;20486;-78
2023/01/04 00:12:22;;;;;;;6.97;2.20;;;7.80;99.90;;;;;;5074555;28;20156;-78
2023/01/04 00:14:48;;;;;;;4.28;2.10;;;7.70;99.90;;;;;;5075114;28;20055;-79
2023/01/04 00:17:14;;;;;;;2.40;1.50;;;7.70;99.90;;;;;;5073343;28;20075;-79
2023/01/04 00:19:39;;;;;;;5.50;2.42;;;7.70;99.90;;;;;;5075001;28;20137;-78
2023/01/04 00:22:05;;;;;;;9.18;2.45;;;7.70;99.90;;;;;;5072693;28;20151;-79
2023/01/04 00:24:31;;;;;;;7.60;2.00;;;7.70;99.90;;;;;;5073997;28;20097;-78
2023/01/04 00:26:57;;;;;;;5.03;1.92;;;7.70;99.90;;;;;;5074684;28;20096;-79
2023/01/04 00:29:22;;;;;;;6.65;1.80;;;7.70;99.90;;;;;;5074349;28;20070;-79
2023/01/04 00:31:48;;;;;;;3.55;1.77;;;7.70;99.90;;;;;;5056397;28;20494;-79
2023/01/04 00:34:15;;;;;;;3.30;1.88;;;7.60;99.90;;;;;;5056799;28;20098;-79
2023/01/04 00:36:41;;;;;;;5.72;2.20;;;7.70;99.90;;;;;;5072939;28;20049;-79
2023/01/04 00:39:13;;;;;;;3.60;1.58;;;7.70;99.90;;;;;;5056611;28;20071;-80
2023/01/04 00:41:50;;;;;;;9.52;2.25;;;7.70;99.90;;;;;;5056822;28;20098;-80
2023/01/04 00:44:16;;;;;;;4.72;1.67;;;7.70;99.90;;;;;;5072942;28;20055;-79
2023/01/04 00:46:43;;;;;;;9.48;2.17;;;7.70;99.90;;;;;;5073142;28;20133;-79
2023/01/04 00:49:10;;;;;;;5.05;2.15;;;7.70;99.90;;;;;;5073107;28;20058;-79
2023/01/04 00:51:38;;;;;;;6.20;1.70;;;7.60;99.90;;;;;;5073629;28;20113;-80
2023/01/04 00:54:06;;;;;;;7.43;2.05;;;7.60;99.90;;;;;;5074398;28;20497;-81
2023/01/04 00:56:33;;;;;;;3.95;1.73;;;7.60;99.90;;;;;;5073073;28;20055;-79
2023/01/04 00:59:00;;;;;;;5.97;1.80;;;7.60;99.90;;;;;;5074198;28;20383;-79
2023/01/04 01:01:28;;;;;;;7.90;2.20;;;7.50;99.90;;;;;;5072549;28;20062;-79
2023/01/04 01:03:56;;;;;;;3.38;2.13;;;7.40;99.90;;;;;;5073852;28;20393;-79
2023/01/04 01:06:23;;;;;;;6.55;2.45;;;7.40;99.90;;;;;;5071198;28;20055;-79
2023/01/04 01:08:50;;;;;;;5.78;1.88;;;7.40;99.90;;;;;;5072900;28;20049;-80
2023/01/04 01:11:17;;;;;;;6.07;2.10;;;7.40;99.90;;;;;;5073577;28;20139;-79
2023/01/04 01:13:42;;;;;;;;;;;7.50;99.90;;;;;;5073295;28;20127;-79
2023/01/04 01:16:17;;;;;;;5.13;2.00;;;7.50;99.90;;;;;;5072016;28;19928;-81
2023/01/04 01:18:44;;;;;;;6.10;2.40;;;7.50;99.90;;;;;;5072833;28;20041;-79
2023/01/04 01:21:20;;;;;;;5.45;2.08;;;7.50;99.90;;;;;;5071405;28;20110;-81
2023/01/04 01:23:46;;;;;;;4.68;1.83;;;7.50;99.90;;;;;;5072597;28;20067;-79
2023/01/04 01:26:14;;;;;;;6.28;2.20;;;7.50;99.90;;;;;;5071953;28;20475;-79
2023/01/04 01:28:40;;;;;;;6.28;2.05;;;7.50;99.90;;;;;;5055746;28;20044;-78
2023/01/04 01:31:08;;;;;;;6.75;2.10;;;7.60;99.90;;;;;;5072358;28;20055;-78
2023/01/04 01:33:36;;;;;;;3.85;1.70;;;7.50;99.90;;;;;;5073064;28;20131;-78
2023/01/04 01:36:03;;;;;;;3.90;2.05;;;7.50;99.90;;;;;;5073161;28;20091;-79
2023/01/04 01:38:28;;;;;;;4.82;1.75;;;7.50;99.90;;;;;;5072649;28;20480;-77
2023/01/04 01:40:54;;;;;;;4.30;2.10;;;7.40;99.90;;;;;;5073135;28;20052;-77
2023/01/04 01:43:23;;;;;;;12.95;3.25;;;7.40;99.90;;;;;;5072949;28;20135;-76
2023/01/04 01:45:53;;;;;;;4.03;2.22;;;7.40;99.90;;;;;;5073399;28;20131;-77
2023/01/04 01:48:28;;;;;;;9.77;2.85;;;7.30;99.90;;;;;;5072614;28;20044;-76
2023/01/04 01:51:01;;;;;;;3.83;1.65;;;7.30;99.90;;;;;;5071991;28;20107;-79
2023/01/04 01:53:29;;;;;;;5.53;1.92;;;7.30;99.90;;;;;;5072422;28;20170;-76
2023/01/04 01:55:56;;;;;;;10.77;1.90;;;7.30;99.90;;;;;;5072964;28;20166;-76
2023/01/04 01:58:45;;;;;;;10.07;2.28;;;7.30;99.90;;;;;;5072862;28;20051;-76
2023/01/04 02:01:10;;;;;;;9.40;2.00;;;7.30;99.90;;;;;;5072615;28;20045;-83
2023/01/04 02:03:40;;;;;;;6.35;2.08;;;7.30;99.90;;;;;;5073072;28;20516;-77
2023/01/04 02:06:10;;;;;;;4.85;2.03;;;7.40;99.90;;;;;;5072506;28;20064;-76
2023/01/04 02:08:39;;;;;;;4.53;2.00;;;7.40;99.90;;;;;;5072736;28;20063;-77
2023/01/04 02:11:05;;;;;;;8.63;2.10;;;7.40;99.90;;;;;;5072218;28;20131;-79
2023/01/04 02:16:47;;;;;;;4.93;2.00;;;7.40;99.90;;;;;;5072323;28;20053;-77
2023/01/04 02:19:25;;;;;;;8.30;2.22;;;7.40;99.90;;;;;;5071348;28;20056;-79
2023/01/04 02:22:20;;;;;;;4.53;2.20;;;7.50;99.90;;;;;;5071836;28;20055;-76
2023/01/04 02:25:23;;;;;;;5.50;2.20;;;7.50;99.90;;;;;;5072712;28;20044;-78
2023/01/04 02:27:56;;;;;;;6.20;1.80;;;7.50;99.90;;;;;;5072551;28;20131;-76
2023/01/04 02:31:09;;;;;;;5.53;2.20;;;7.50;99.90;;;;;;5070857;28;20409;-75
2023/01/04 02:34:12;;;;;;;6.22;2.17;;;7.50;99.90;;;;;;5072121;28;20450;-80
2023/01/04 02:37:07;;;;;;;5.05;2.00;;;7.50;99.90;;;;;;5072578;28;20040;-76
2023/01/04 02:40:02;;;;;;;4.93;2.03;;;7.60;99.90;;;;;;5070984;28;20090;-75
2023/01/04 02:45:30;;;;;;;6.63;2.05;;;7.50;99.90;;;;;;5072904;28;20056;-75
2023/01/04 02:50:55;;;;;;;3.10;1.73;;;7.60;99.90;;;;;;5072577;28;20540;-76
2023/01/04 02:53:27;;;;;;;8.57;2.10;;;7.70;99.90;;;;;;5070282;28;20056;-76
2023/01/04 02:56:38;;;;;;;2.72;1.70;;;7.70;99.90;;;;;;5072468;28;20116;-80
2023/01/04 02:59:20;;;;;;;5.90;1.83;;;7.70;99.90;;;;;;5048862;28;20060;-75
2023/01/04 03:08:21;;;;;;;4.90;2.10;;;7.90;99.90;;;;;;5071937;28;20153;-76
2023/01/04 03:12:30;;;;;;;8.45;1.95;;;8.00;99.90;;;;;;5065237;28;20052;-75
2023/01/04 03:13:57;;;;;;;3.50;1.65;;;8.00;99.90;;;;;;5072159;28;20056;-73
2023/01/04 03:16:25;;;;;;;4.05;1.90;;;8.00;99.90;;;;;;5071967;28;20044;-73
2023/01/04 03:18:55;;;;;;;4.07;2.15;;;8.00;99.90;;;;;;5072402;28;20129;-73
2023/01/04 03:21:23;;;;;;;4.07;2.00;;;8.10;99.90;;;;;;5071594;28;20048;-76
2023/01/04 03:35:36;;;;;;;8.07;1.90;;;8.20;99.90;;;;;;5070789;28;20056;-72
2023/01/04 03:50:04;;;;;;;4.00;2.30;;;8.50;99.90;;;;;;5071967;28;19927;-73
2023/01/04 03:52:32;;;;;;;6.60;2.47;;;8.50;99.90;;;;;;5071198;28;20048;-76
2023/01/04 03:55:00;;;;;;;6.13;2.80;;;8.50;99.90;;;;;;5072060;28;20131;-73
2023/01/04 03:57:26;;;;;;;8.80;2.55;;;8.60;99.90;;;;;;5071585;28;20051;-73
2023/01/04 03:59:58;;;;;;;5.93;2.03;;;8.60;99.90;;;;;;5072064;28;20402;-72
2023/01/04 04:02:28;;;;;;;6.13;2.45;;;8.60;99.90;;;;;;5070662;28;20036;-71
2023/01/04 04:10:22;;;;;;;6.65;2.65;;;8.60;99.90;;;;;;5070692;28;20071;-71
2023/01/04 04:12:48;;;;;;;5.13;2.50;;;8.60;99.90;;;;;;5071288;28;20466;-70
2023/01/04 04:15:14;;;;;;;4.88;2.35;;;8.70;99.90;;;;;;5071078;28;20177;-68
2023/01/04 04:17:40;;;;;;;3.45;2.20;;;8.80;99.90;;;;;;5070253;28;20036;-70
2023/01/04 04:20:07;;;;;;;4.43;2.42;;;8.80;99.90;;;;;;5071166;28;20047;-69
2023/01/04 04:22:33;;;;;;;4.18;2.55;;;8.80;99.90;;;;;;5069976;28;20052;-71
2023/01/04 04:24:58;;;;;;;8.15;1.92;;;8.80;99.90;;;;;;5070651;28;20055;-72
2023/01/04 04:27:24;;;;;;;5.75;1.80;;;8.80;99.90;;;;;;5071204;28;20040;-75
2023/01/04 04:29:50;;;;;;;3.00;1.90;;;8.90;99.90;;;;;;5071709;28;20048;-71
2023/01/04 04:32:15;;;;;;;4.80;2.03;;;8.90;99.90;;;;;;5071499;28;20062;-71
2023/01/04 04:34:41;;;;;;;3.55;2.10;;;8.90;99.90;;;;;;5073741;28;20043;-74
2023/01/04 04:37:07;;;;;;;3.78;1.85;;;8.90;99.90;;;;;;5074736;28;20097;-72
2023/01/04 04:39:32;;;;;;;3.05;1.85;;;8.90;99.90;;;;;;5073882;28;20048;-72
2023/01/04 04:41:58;;;;;;;3.50;1.73;;;8.90;99.90;;;;;;5075112;28;20075;-73
2023/01/04 04:44:24;;;;;;;3.40;1.80;;;9.00;99.90;;;;;;5074753;28;20055;-83
2023/01/04 04:46:49;;;;;;;1.95;1.52;;;9.00;99.90;;;;;;5074736;28;20128;-71
2023/01/04 04:49:16;;;;;;;3.70;2.00;;;9.10;99.90;;;;;;5075143;28;20402;-72
2023/01/04 04:51:43;;;;;;;4.13;1.75;;;9.10;99.90;;;;;;5074310;28;20131;-75
2023/01/04 04:54:13;;;;;;;2.95;1.83;;;9.10;99.90;;;;;;5074809;28;20078;-72
2023/01/04 04:56:39;;;;;;;3.38;1.50;;;9.10;99.90;;;;;;5074741;28;20178;-71
2023/01/04 04:59:05;;;;;;;2.85;1.80;;;9.20;99.90;;;;;;5074953;28;20119;-72
2023/01/04 05:01:31;;;;;;;;;;;9.20;99.90;;;;;;5074488;28;20595;-75
2023/01/04 05:03:57;;;;;;;3.25;1.98;;;9.20;99.90;;;;;;5074555;28;20007;-72
2023/01/04 05:06:23;;;;;;;2.83;1.80;;;9.10;99.90;;;;;;5073244;28;20060;-85
2023/01/04 05:08:49;;;;;;;6.70;2.35;;;9.20;99.90;;;;;;5073969;28;20101;-72
2023/01/04 05:11:14;;;;;;;2.65;1.95;;;9.20;99.90;;;;;;5073949;28;20048;-72
2023/01/04 05:13:40;;;;;;;2.80;2.00;;;9.30;99.90;;;;;;5074330;28;20048;-72
2023/01/04 05:16:08;;;;;;;5.13;2.53;;;9.30;99.90;;;;;;5074123;28;20543;-72
2023/01/04 05:18:34;;;;;;;3.65;2.13;;;9.30;99.90;;;;;;5055917;28;20055;-71
2023/01/04 05:20:59;;;;;;;3.60;2.13;;;9.30;99.90;;;;;;5073897;28;20127;-75
2023/01/04 05:23:25;;;;;;;4.18;2.22;;;9.40;99.90;;;;;;5073589;28;20154;-87
2023/01/04 05:26:02;;;;;;;4.70;2.35;;;9.30;99.90;;;;;;5074052;28;20052;-72
2023/01/04 05:28:28;;;;;;;6.80;2.40;;;9.40;99.90;;;;;;5073552;28;20051;-75
2023/01/04 05:30:54;;;;;;;3.72;2.20;;;9.40;99.90;;;;;;5073230;28;20048;-72
2023/01/04 05:33:22;;;;;;;5.70;2.72;;;9.50;99.90;;;;;;5073988;28;20048;-75
2023/01/04 05:35:49;;;;;;;5.30;2.38;;;9.50;99.90;;;;;;5073907;28;20075;-75
2023/01/04 05:38:14;;;;;;;;;;;9.50;99.90;;;;;;5074601;28;20098;-74
2023/01/04 05:40:40;;;;;;;5.97;2.83;;;9.50;99.90;;;;;;5073077;28;19963;-72
2023/01/04 05:43:06;;;;;;;6.55;3.15;;;9.50;99.90;;;;;;5073160;28;20044;-74
2023/01/04 05:45:32;;;;;;;6.13;3.10;;;9.60;99.90;;;;;;5073173;28;20045;-72
2023/01/04 05:47:57;;;;;;;;;;;9.60;99.90;;;;;;5074553;28;20048;-72
2023/01/04 05:50:23;;;;;;;7.72;2.72;;;9.60;99.90;;;;;;5074243;28;19974;-72
2023/01/04 05:52:49;;;;;;;5.15;2.97;;;9.60;99.90;;;;;;5073564;28;20033;-72
2023/01/04 05:55:15;;;;;;;7.55;3.17;;;9.60;99.90;;;;;;5073902;28;20501;-72
2023/01/04 05:57:41;;;;;;;7.63;3.55;;;9.70;99.90;;;;;;5073537;28;20053;-71
2023/01/04 06:00:08;;;;;;;9.70;3.25;;;9.70;99.90;;;;;;5074298;28;20086;-71
2023/01/04 06:02:34;;;;;;;9.18;3.58;;;9.70;99.90;;;;;;5073640;28;20044;-71
2023/01/04 06:05:00;;;;;;;5.53;2.88;;;9.70;99.90;;;;;;5074009;28;20448;-71
2023/01/04 06:07:26;;;;;;;5.07;2.70;;;9.80;99.90;;;;;;5073707;28;20056;-71
2023/01/04 06:09:52;;;;;;;7.85;3.47;;;9.80;99.90;;;;;;5073416;28;20048;-71
2023/01/04 06:12:18;;;;;;;9.25;3.30;;;9.80;99.90;;;;;;5073413;28;20127;-75
2023/01/04 06:14:44;;;;;;;7.68;2.90;;;9.80;99.90;;;;;;5073287;28;20055;-72
2023/01/04 06:17:09;;;;;;;7.60;3.10;;;9.80;99.90;;;;;;5073305;28;20052;-71
2023/01/04 06:19:35;;;;;;;6.22;3.40;;;9.90;99.90;;;;;;5073348;28;20069;-71
2023/01/04 06:22:01;;;;;;;6.55;2.78;;;9.90;99.90;;;;;;5073350;28;20086;-73
2023/01/04 06:24:27;;;;;;;7.32;3.10;;;9.90;99.90;;;;;;5073405;28;20110;-71
2023/01/04 06:26:52;;;;;;;7.95;3.15;;;9.90;99.90;;;;;;5073194;28;20052;-71
2023/01/04 06:29:18;;;;;;;5.03;2.50;;;9.90;99.90;;;;;;5073531;28;20508;-71
2023/01/04 06:31:44;;;;;;;8.00;3.42;;;9.90;99.90;;;;;;5073048;28;20427;-71
2023/01/04 06:34:13;;;;;;;4.82;2.67;;;9.90;99.90;;;;;;5072771;28;20045;-70
2023/01/04 06:36:40;;;;;;;6.63;2.80;;;9.90;99.90;;;;;;5072636;28;20048;-70
2023/01/04 06:39:07;;;;;;;6.00;3.00;;;9.90;99.90;;;;;;5073053;28;20105;-70
2023/01/04 06:41:33;;;;;;;7.65;3.10;;;10.00;99.90;;;;;;5073294;28;20041;-81
2023/01/04 06:43:58;;;;;;;8.07;2.83;;;9.90;99.90;;;;;;5072551;28;20055;-70
2023/01/04 06:46:25;;;;;;;5.53;2.80;;;10.00;99.90;;;;;;5073547;28;20049;-70
2023/01/04 06:48:52;;;;;;;6.43;2.67;;;10.00;99.90;;;;;;5073006;28;20048;-70
2023/01/04 06:51:19;;;;;;;8.77;2.70;;;10.00;99.90;;;;;;5072411;28;20053;-69
2023/01/04 06:53:44;;;;;;;10.20;2.63;;;10.00;99.90;;;;;;5072722;28;20044;-73
2023/01/04 06:56:10;;;;;;;9.52;2.72;;;10.00;99.90;;;;;;5073178;28;20055;-69
2023/01/04 06:58:36;;;;;;;5.18;2.33;;;10.00;99.90;;;;;;5072971;28;20591;-70
2023/01/04 07:01:02;;;;;;;5.30;2.30;;;10.00;99.90;;;;;;5073236;28;20539;-69
2023/01/04 07:03:28;;;;;;;;;;;10.00;99.90;;;;;;5073346;28;20047;-69
2023/01/04 07:05:53;;;;;;;5.63;2.10;;;10.00;99.90;;;;;;5072132;28;19924;-69
2023/01/04 07:08:19;;;;;;;3.22;1.70;;;9.90;99.90;;;;;;5072972;28;20055;-69
2023/01/04 07:10:45;;;;;;;3.97;1.90;;;10.00;99.90;;;;;;5072883;28;20045;-69
2023/01/04 07:13:11;;;;;;;3.53;1.95;;;10.00;99.90;;;;;;5073050;28;20080;-69
2023/01/04 07:15:38;;;;;;;4.28;2.05;;;10.00;99.90;;;;;;5072855;28;20106;-76
2023/01/04 07:18:03;;;;;;;4.47;2.00;;;10.00;99.90;;;;;;5072898;28;20044;-69
2023/01/04 07:20:29;;;;;;;2.55;1.67;;;10.10;99.90;;;;;;5073247;28;20116;-69
2023/01/04 07:22:55;;;;;;;4.22;1.90;;;10.00;99.90;;;;;;5072633;28;20575;-77
2023/01/04 07:25:21;;;;;;;4.45;1.83;;;10.00;99.90;;;;;;5072908;28;20123;-69
2023/01/04 07:27:51;;;;;;;3.35;1.90;;;10.00;99.90;;;;;;5072938;28;20051;-70
2023/01/04 07:30:17;;;;;;;3.92;2.00;;;10.10;99.90;;;;;;5073178;28;20127;-70
2023/01/04 07:32:43;;;;;;;4.97;1.95;;;10.10;99.90;;;;;;5072731;28;20098;-69
2023/01/04 07:35:09;;;;;;;4.65;2.00;;;10.10;99.90;;;;;;5073112;28;20045;-69
2023/01/04 07:37:34;;;;;;;6.30;1.85;;;10.10;99.90;;;;;;5073264;28;20504;-69
2023/01/04 07:40:00;;;;;;;3.15;1.80;;;10.00;99.90;;;;;;5072952;28;20041;-69
2023/01/04 07:42:26;;;;;;;3.03;1.60;;;10.10;99.90;;;;;;5071847;28;20048;-70
2023/01/04 07:44:51;;;;;;;9.77;2.10;;;10.10;99.90;;;;;;5072779;28;20052;-70
2023/01/04 07:47:17;;;;;;;3.78;2.00;;;10.10;99.90;;;;;;5072804;28;20497;-70
2023/01/04 07:49:43;;;;;;;3.22;1.70;;;10.10;99.90;;;;;;5072577;28;20501;-69
2023/01/04 07:52:08;;;;;;;4.32;2.10;;;10.20;99.90;;;;;;5072439;28;20041;-69
2023/01/04 07:54:35;;;;;;;2.58;1.58;;;10.10;99.90;;;;;;5072690;28;20041;-69
2023/01/04 07:57:00;;;;;;;3.80;1.98;;;10.10;99.90;;;;;;5072176;28;20048;-69
2023/01/04 07:59:26;;;;;;;3.65;1.95;;;10.10;99.90;;;;;;5072319;28;20127;-71
2023/01/04 08:01:52;;;;;;;3.47;1.73;;;10.20;99.90;;;;;;5071666;28;20172;-69
2023/01/04 08:04:21;;;;;;;3.53;1.80;;;10.20;99.90;;;;;;5071280;28;20059;-70
2023/01/04 08:06:47;;;;;;;4.70;1.92;;;10.20;99.90;;;;;;5070000;28;20115;-71
2023/01/04 08:09:13;;;;;;;3.75;1.85;;;10.20;99.90;;;;;;5073148;28;20048;-69
2023/01/04 08:11:39;;;;;;;4.65;2.28;;;10.20;99.90;;;;;;5075345;28;20131;-69
2023/01/04 08:14:05;;;;;;;;;;;10.20;99.90;;;;;;5075123;28;20044;-69
2023/01/04 08:16:33;;;;;;;4.75;2.08;;;10.30;99.90;;;;;;5074925;28;19927;-70
2023/01/04 08:19:02;;;;;;;4.00;2.10;;;10.20;99.90;;;;;;5074670;28;20040;-70
2023/01/04 08:21:29;;;;;;;4.75;2.10;;;10.30;99.90;;;;;;5074369;28;20048;-70
2023/01/04 08:23:55;;;;;;;4.47;2.00;;;10.30;99.90;;;;;;5074514;28;20438;-71
2023/01/04 08:26:21;;;;;;;7.47;2.30;;;10.30;99.90;;;;;;5073954;28;20095;-75
2023/01/04 08:28:48;;;;;;;4.72;2.17;;;10.30;99.90;;;;;;5074054;28;20132;-72
2023/01/04 08:31:19;;;;;;;5.00;2.35;;;10.40;99.90;;;;;;5074415;28;20120;-70
2023/01/04 08:33:45;;;;;;;5.45;2.38;;;10.40;99.90;;;;;;5074481;28;20063;-70
2023/01/04 08:36:22;;;;;;;6.82;2.72;;;10.40;99.90;;;;;;5074429;28;20056;-75
2023/01/04 08:38:49;;;;;;;4.85;2.40;;;10.40;99.90;;;;;;5074397;28;20049;-69
2023/01/04 08:41:16;;;;;;;7.13;2.78;;;10.40;99.90;;;;;;5074731;28;20048;-70
2023/01/04 08:43:42;;;;;;;6.18;2.83;;;10.50;99.90;;;;;;5074716;28;20048;-77
2023/01/04 08:46:08;;;;;;;5.05;2.63;;;10.50;99.90;;;;;;5074036;28;20044;-76
2023/01/04 08:48:34;;;;;;;;;;;10.50;99.90;;;;;;5074873;28;20044;-69
2023/01/04 08:51:03;;;;;;;6.03;2.60;;;10.50;99.90;;;;;;5074007;28;19926;-70
2023/01/04 08:53:28;;;;;;;9.23;2.85;;;10.50;99.90;;;;;;5073345;28;20582;-72
2023/01/04 08:55:55;;;;;;;5.95;2.88;;;10.50;99.90;;;;;;5073877;28;20052;-71
2023/01/04 08:58:22;;;;;;;7.47;2.65;;;10.50;99.90;;;;;;5074388;28;20044;-69
2023/01/04 09:00:48;;;;;;;5.80;2.90;;;10.50;99.90;;;;;;5073972;28;20084;-74
2023/01/04 09:03:13;;;;;;;7.22;2.53;;;10.50;99.90;;;;;;5074039;28;20109;-70
2023/01/04 09:05:39;;;;;;;7.05;2.75;;;10.60;99.90;;;;;;5073973;28;20228;-69
2023/01/04 09:08:05;;;;;;;4.95;2.35;;;10.60;99.90;;;;;;5073212;28;20056;-71
2023/01/04 09:10:31;;;;;;;6.15;2.53;;;10.60;99.90;;;;;;5074040;28;20058;-69
2023/01/04 09:12:57;;;;;;;7.47;2.53;;;10.60;99.90;;;;;;5073735;28;20127;-70
2023/01/04 09:15:22;;;;;;;7.53;2.58;;;10.60;99.90;;;;;;5073797;28;20139;-70
2023/01/04 09:17:49;;;;;;;6.55;2.95;;;10.60;99.90;;;;;;5073559;28;20052;-82
2023/01/04 09:20:15;;;;;;;5.60;2.35;;;10.60;99.90;;;;;;5072732;28;20040;-73
2023/01/04 09:22:40;;;;;;;6.45;2.53;;;10.60;99.90;;;;;;5073368;28;20036;-70
2023/01/04 09:25:07;;;;;;;5.13;2.47;;;10.60;99.90;;;;;;5073584;28;20105;-73
2023/01/04 09:27:32;;;;;;;;;;;10.60;99.90;;;;;;5074158;28;20044;-70
2023/01/04 09:29:58;;;;;;;6.40;2.30;;;10.60;99.90;;;;;;5073195;28;19973;-74
2023/01/04 09:32:25;;;;;;;4.75;2.20;;;10.60;99.90;;;;;;5073071;28;20036;-71
2023/01/04 09:34:51;;;;;;;5.00;2.22;;;10.60;99.90;;;;;;5072924;28;20052;-80
2023/01/04 09:37:16;;;;;;;4.40;2.33;;;10.70;99.90;;;;;;5072811;28;20048;-69
2023/01/04 09:39:43;;;;;;;8.85;2.10;;;10.60;99.90;;;;;;5073652;28;20053;-69
2023/01/04 09:42:38;;;;;;;3.78;2.10;;;10.70;99.90;;;;;;5072964;28;20044;-69
2023/01/04 09:45:21;;;;;;;3.40;2.10;;;10.70;99.90;;;;;;5071124;28;20057;-71
2023/01/04 09:48:04;;;;;;;2.47;1.60;;;10.70;99.90;;;;;;5072923;28;20048;-70
2023/01/04 09:50:49;;;;;;;3.55;1.52;;;10.70;99.90;;;;;;5073191;28;20453;-72
2023/01/04 09:53:27;;;;;;;4.07;1.85;;;10.70;99.90;;;;;;5072119;28;20040;-69
2023/01/04 09:56:00;;;;;;;4.65;2.00;;;10.70;99.90;;;;;;5072914;28;20056;-80
2023/01/04 09:58:38;;;;;;;2.63;1.65;;;10.70;99.90;;;;;;5073302;28;20123;-69
2023/01/04 10:01:15;;;;;;;3.15;1.80;;;10.70;99.90;;;;;;5072810;28;20538;-69
2023/01/04 10:03:49;;;;;;;3.70;1.67;;;10.70;99.90;;;;;;5073265;28;20093;-70
2023/01/04 10:06:14;;;;;;;2.22;1.50;;;10.70;99.90;;;;;;5072001;28;20068;-73
2023/01/04 10:08:42;;;;;;;5.28;2.08;;;10.80;99.90;;;;;;5072565;28;20068;-68
2023/01/04 10:11:28;;;;;;;2.88;1.60;;;10.80;99.90;;;;;;5072210;28;20048;-74
2023/01/04 10:14:03;;;;;;;3.50;1.60;;;10.80;99.90;;;;;;5072683;28;20103;-83
2023/01/04 10:16:53;;;;;;;2.95;1.60;;;10.80;99.90;;;;;;5072326;28;20508;-72
2023/01/04 10:19:36;;;;;;;3.90;1.60;;;10.80;99.90;;;;;;5072591;28;20409;-69
2023/01/04 10:22:24;;;;;;;4.10;1.67;;;10.80;99.90;;;;;;5070823;28;20080;-70
2023/01/04 10:25:11;;;;;;;3.20;1.50;;;10.80;99.90;;;;;;5071603;28;20534;-69
2023/01/04 10:27:46;;;;;;;;;;;10.80;99.90;;;;;;5073103;28;20048;-69
2023/01/04 10:30:18;;;;;;;8.00;1.38;;;10.90;99.90;;;;;;5054688;28;20400;-69
2023/01/04 10:32:46;;;;;;;3.75;1.48;;;10.80;99.90;;;;;;5071813;28;20127;-69
2023/01/04 10:35:19;;;;;;;3.95;1.50;;;10.80;99.90;;;;;;5072044;28;20478;-72
2023/01/04 10:37:48;;;;;;;2.65;1.30;;;10.80;99.90;;;;;;5071730;28;20145;-70
2023/01/04 10:40:16;;;;;;;2.08;1.25;;;10.90;99.90;;;;;;5071430;28;20052;-69
2023/01/04 10:42:51;;;;;;;2.63;1.55;;;10.90;99.90;;;;;;5072289;28;20048;-69
2023/01/04 10:45:26;;;;;;;2.85;1.42;;;10.90;99.90;;;;;;5071876;28;20123;-69
2023/01/04 10:48:04;;;;;;;1.40;1.10;;;10.90;99.90;;;;;;5070836;28;20079;-70
2023/01/04 10:50:35;;;;;;;6.85;1.30;;;10.90;99.90;;;;;;5071219;28;20054;-78
2023/01/04 10:53:22;;;;;;;2.25;1.20;;;10.90;99.90;;;;;;5070484;28;20044;-69
2023/01/04 10:55:54;;;;;;;3.08;1.38;;;11.00;99.90;;;;;;5071421;28;20052;-71
2023/01/04 10:58:49;;;;;;;2.88;1.40;;;11.00;99.90;;;;;;5070965;28;20040;-70
2023/01/04 11:01:23;;;;;;;3.25;1.40;;;11.00;99.90;;;;;;5070862;28;20071;-73
2023/01/04 11:03:52;;;;;;;3.70;1.70;;;11.00;99.90;;;;;;5071100;28;20117;-70
2023/01/04 11:06:24;;;;;;;2.88;1.75;;;11.00;99.90;;;;;;5070144;28;20293;-72
2023/01/04 11:09:25;;;;;;;5.35;1.70;;;11.00;99.90;;;;;;5071379;28;20157;-73
2023/01/04 11:11:55;;;;;;;2.05;1.33;;;11.00;99.90;;;;;;5070394;28;20049;-74
2023/01/04 11:14:22;;;;;;;1.45;1.17;;;11.10;99.90;;;;;;5070916;28;20055;-71
2023/01/04 11:16:50;;;;;;;1.75;1.40;;;11.00;99.90;;;;;;5070975;28;20052;-74
2023/01/04 11:19:16;;;;;;;3.75;1.65;;;11.00;99.90;;;;;;5070252;28;20048;-72
2023/01/04 11:21:58;;;;;;;2.17;1.38;;;11.10;99.90;;;;;;5070129;28;20048;-72
2023/01/04 11:24:28;;;;;;;1.95;1.20;;;11.10;99.90;;;;;;5070231;28;20052;-71
2023/01/04 11:26:55;;;;;;;5.05;2.28;;;11.10;99.90;;;;;;5070526;28;20067;-73
2023/01/04 11:29:43;;;;;;;4.25;1.50;;;11.10;99.90;;;;;;5070064;28;20127;-73
2023/01/04 11:32:59;;;;;;;3.88;1.50;;;11.20;99.90;;;;;;5069504;28;20083;-74
2023/01/04 11:35:41;;;;;;;5.28;2.17;;;11.20;99.90;;;;;;5007595;28;20054;-72
2023/01/04 11:38:14;;;;;;;3.33;1.98;;;11.20;99.90;;;;;;5006848;28;20510;-73
2023/01/04 11:40:40;;;;;;;7.13;2.30;;;11.20;99.90;;;;;;5051729;28;20057;-76
2023/01/04 11:43:17;;;;;;;3.85;2.35;;;11.30;99.90;;;;;;5070062;28;20045;-72
2023/01/04 11:45:57;;;;;;;6.03;2.50;;;11.30;99.90;;;;;;5074316;28;20052;-73
2023/01/04 11:48:32;;;;;;;4.65;2.10;;;11.30;99.90;;;;;;5073751;28;20122;-72
2023/01/04 11:50:57;;;;;;;9.75;2.30;;;11.40;99.90;;;;;;5074400;28;20063;-72
2023/01/04 11:53:32;;;;;;;5.85;2.20;;;11.40;99.90;;;;;;5073406;28;20626;-73
2023/01/04 11:56:26;;;;;;;8.82;2.30;;;11.40;99.90;;;;;;5073130;28;20080;-73
2023/01/04 11:59:14;;;;;;;10.55;2.97;;;11.40;99.90;;;;;;5071698;28;20080;-72
2023/01/04 12:01:45;;;;;;;4.75;2.10;;;11.40;99.90;;;;;;5074076;28;20123;-72
2023/01/04 12:04:23;;;;;;;6.30;2.25;;;11.40;99.90;;;;;;5073888;28;20049;-77
2023/01/04 12:06:55;;;;;;;8.50;2.78;;;11.40;99.90;;;;;;5073345;28;20672;-72
2023/01/04 12:09:21;;;;;;;7.53;2.40;;;11.50;99.90;;;;;;5073292;28;20490;-73
2023/01/04 12:11:55;;;;;;;9.10;2.42;;;11.50;99.90;;;;;;5073833;28;20049;-72
2023/01/04 12:14:25;;;;;;;4.65;1.90;;;11.50;99.90;;;;;;5073349;28;20424;-75
2023/01/04 12:17:06;;;;;;;6.53;2.40;;;11.50;99.90;;;;;;5073440;28;20041;-74
2023/01/04 12:19:34;;;;;;;5.40;2.05;;;11.50;99.90;;;;;;5074241;28;20048;-71
2023/01/04 12:22:03;;;;;;;7.32;2.00;;;11.50;99.90;;;;;;5073126;28;20132;-72
2023/01/04 12:24:33;;;;;;;5.20;2.00;;;11.50;99.90;;;;;;5073369;28;20044;-71
2023/01/04 12:27:00;;;;;;;4.45;1.50;;;11.60;99.90;;;;;;5073433;28;20508;-71
2023/01/04 12:29:40;;;;;;;4.63;1.63;;;11.60;99.90;;;;;;5073287;28;20229;-70
2023/01/04 12:32:06;;;;;;;2.65;1.20;;;11.50;99.90;;;;;;5073080;28;20044;-82
2023/01/04 12:34:33;;;;;;;3.08;1.05;;;11.50;99.90;;;;;;5074169;28;20366;-71
2023/01/04 12:37:03;;;;;;;2.67;1.00;;;11.50;99.90;;;;;;5074058;28;20501;-70
2023/01/04 12:39:42;;;;;;;2.95;1.42;;;11.50;99.90;;;;;;5074558;28;20036;-75
2023/01/04 12:42:16;;;;;;;1.45;0.85;;;11.50;99.90;;;;;;5074637;28;20045;-84
2023/01/04 12:44:50;;;;;;;3.15;0.90;;;11.40;99.90;;;;;;5074764;28;20088;-71
2023/01/04 12:50:09;;;;;;;0.85;0.85;;;11.50;99.90;;;;;;5074242;28;20113;-71
2023/01/04 12:52:46;;;;;;;2.08;0.90;;;11.50;99.90;;;;;;5073349;28;20489;-73
2023/01/04 12:55:18;;;;;;;4.70;1.20;;;11.50;99.90;;;;;;5073111;28;20044;-71
2023/01/04 12:57:44;;;;;;;4.90;1.10;;;11.40;99.90;;;;;;5073836;28;20048;-69
2023/01/04 13:00:12;;;;;;;4.18;1.17;;;11.40;99.90;;;;;;5073700;28;20394;-82
2023/01/04 13:02:46;;;;;;;2.20;1.05;;;11.30;99.90;;;;;;5073336;28;20049;-70
2023/01/04 13:05:18;;;;;;;0.75;0.73;;;11.30;99.90;;;;;;5073408;28;20083;-76
2023/01/04 13:07:48;;;;;;;3.90;1.10;;;11.30;99.90;;;;;;5072994;28;20447;-70
2023/01/04 13:10:30;;;;;;;2.05;1.00;;;11.30;99.90;;;;;;5072306;28;20130;-73
2023/01/04 13:12:58;;;;;;;4.03;1.85;;;11.30;99.90;;;;;;5073586;28;20123;-71
2023/01/04 13:15:45;;;;;;;6.22;1.20;;;11.30;99.90;;;;;;5073254;28;20448;-73
2023/01/04 13:18:40;;;;;;;2.70;1.30;;;11.30;99.90;;;;;;5073079;28;20087;-81
2023/01/04 13:21:25;;;;;;;8.00;1.70;;;11.40;99.90;;;;;;5073242;28;20052;-73
2023/01/04 13:23:54;;;;;;;9.82;1.70;;;11.40;99.90;;;;;;5073132;28;20047;-76
2023/01/04 13:26:50;;;;;;;4.68;2.15;;;11.30;99.90;;;;;;5072681;28;20052;-71
2023/01/04 13:29:27;;;;;;;6.60;1.73;;;11.30;99.90;;;;;;5072975;28;20047;-73
2023/01/04 13:31:55;;;;;;;4.13;1.63;;;11.40;99.90;;;;;;5072985;28;20082;-71
2023/01/04 13:34:23;;;;;;;10.23;2.00;;;11.40;99.90;;;;;;5072849;28;20048;-71
2023/01/04 13:36:54;;;;;;;10.60;2.25;;;11.40;99.90;;;;;;5072565;28;20044;-76
2023/01/04 13:39:19;;;;;;;8.50;2.08;;;11.40;99.90;;;;;;5072744;28;20500;-70
2023/01/04 13:41:45;;;;;;;11.48;1.90;;;11.50;99.90;;;;;;5071811;28;20041;-71
2023/01/04 13:44:28;;;;;;;10.63;2.45;;;11.50;99.90;;;;;;5073161;28;20044;-73
2023/01/04 13:46:55;;;;;;;10.93;2.08;;;11.50;99.90;;;;;;5072802;28;20182;-71
2023/01/04 13:49:22;;;;;;;9.30;1.90;;;11.50;99.90;;;;;;5072578;28;20083;-72
2023/01/04 13:51:48;;;;;;;10.43;2.25;;;11.50;99.90;;;;;;5072204;28;20052;-70
2023/01/04 13:54:22;;;;;;;9.05;1.70;;;11.50;99.90;;;;;;5071683;28;20182;-81
2023/01/04 13:56:49;;;;;;;7.97;1.80;;;11.50;99.90;;;;;;5072675;28;20080;-73